createdAt,value
2023-04-17T00:01:32.832Z,6.80
2023-04-17T00:13:33.282Z,7.40
2023-04-17T00:25:33.713Z,8.70
2023-04-17T00:37:34.174Z,7.60
2023-04-17T00:49:35.034Z,7.60
2023-04-17T01:01:35.131Z,6.20
2023-04-17T01:13:35.547Z,5.70
2023-04-17T01:25:36.039Z,5.90
2023-04-17T01:37:36.415Z,7.10
2023-04-17T01:49:36.870Z,6.60
2023-04-17T02:01:37.443Z,7.90
2023-04-17T02:13:37.824Z,8.70
2023-04-17T02:25:38.249Z,9.80
2023-04-17T02:37:38.685Z,9.00
2023-04-17T02:49:39.140Z,10.40
2023-04-17T03:01:39.659Z,9.20
2023-04-17T03:13:40.061Z,11.20
2023-04-17T03:25:40.550Z,11.30
2023-04-17T03:37:40.965Z,11.60
2023-04-17T03:49:41.477Z,11.20
2023-04-17T04:01:41.849Z,17.00
2023-04-17T04:13:42.304Z,20.90
2023-04-17T04:25:42.823Z,20.50
2023-04-17T04:37:43.240Z,15.90
2023-04-17T04:49:43.760Z,18.90
2023-04-17T05:01:44.251Z,16.50
2023-04-17T05:13:44.580Z,18.10
2023-04-17T05:25:45.075Z,10.60
2023-04-17T05:37:45.551Z,9.70
2023-04-17T05:49:45.979Z,7.70
2023-04-17T06:01:46.448Z,6.90
2023-04-17T06:13:46.947Z,7.90
2023-04-17T06:25:47.274Z,8.80
2023-04-17T06:37:47.774Z,8.90
2023-04-17T06:49:48.195Z,8.10
2023-04-17T07:01:48.677Z,8.50
2023-04-17T07:13:49.104Z,13.90
2023-04-17T07:25:49.613Z,10.80
2023-04-17T07:37:49.992Z,13.40
2023-04-17T07:49:50.507Z,16.60
2023-04-17T08:01:50.987Z,15.60
2023-04-17T08:13:51.364Z,16.40
2023-04-17T08:25:51.816Z,14.10
2023-04-17T08:37:52.286Z,15.60
2023-04-17T08:49:52.716Z,11.70
2023-04-17T09:01:53.266Z,12.20
2023-04-17T09:13:53.635Z,11.70
2023-04-17T09:25:54.152Z,11.20
2023-04-17T09:37:54.522Z,8.60
2023-04-17T09:49:54.982Z,9.40
2023-04-17T10:22:26.663Z,7.80
2023-04-17T10:34:27.138Z,7.40
2023-04-17T10:46:27.665Z,7.30
2023-04-17T10:58:31.662Z,7.00
2023-04-17T11:10:28.524Z,7.60
2023-04-17T11:22:28.953Z,8.00
2023-04-17T11:34:29.422Z,7.40
2023-04-17T11:46:29.985Z,7.30
2023-04-17T11:58:30.471Z,7.10
2023-04-17T12:10:30.792Z,7.30
2023-04-17T12:22:31.249Z,7.30
2023-04-17T12:34:31.690Z,8.00
2023-04-17T12:46:32.154Z,8.60
2023-04-17T13:08:48.234Z,8.60
2023-04-17T13:20:48.713Z,7.80
2023-04-17T13:32:49.197Z,10.10
2023-04-17T13:44:49.590Z,8.10
2023-04-17T13:56:50.038Z,6.60
2023-04-17T14:08:50.533Z,7.60
2023-04-17T14:20:50.920Z,8.30
2023-04-17T14:32:51.403Z,6.20
2023-04-17T14:44:51.849Z,8.00
2023-04-17T14:56:52.335Z,6.70
2023-04-17T15:08:52.831Z,15.80
2023-04-17T15:20:53.202Z,8.90
2023-04-17T15:32:53.697Z,8.90
2023-04-17T15:44:54.144Z,10.10
2023-04-17T15:56:54.554Z,15.20
2023-04-17T16:08:55.039Z,9.70
2023-04-17T16:20:55.532Z,10.50
2023-04-17T16:32:55.995Z,9.30
2023-04-17T16:44:56.403Z,12.50
2023-04-17T16:56:56.859Z,11.70
2023-04-17T17:08:57.309Z,11.00
2023-04-17T17:20:57.757Z,13.20
2023-04-17T17:32:58.196Z,12.80
2023-04-17T17:44:58.670Z,13.00
2023-04-17T17:56:59.123Z,14.60
2023-04-17T18:08:59.594Z,15.10
2023-04-17T18:21:00.033Z,14.70
2023-04-17T18:33:00.618Z,17.20
2023-04-17T18:45:00.982Z,17.50
2023-04-17T18:57:01.490Z,18.90
2023-04-17T19:09:01.829Z,16.20
2023-04-17T19:21:02.311Z,18.80
2023-04-17T19:33:02.784Z,18.40
2023-04-17T19:45:03.204Z,18.20
2023-04-17T19:57:03.635Z,16.40
2023-04-17T20:09:04.086Z,17.90
2023-04-17T20:21:04.559Z,20.40
2023-04-17T20:33:05.495Z,17.20
2023-04-17T20:45:05.446Z,17.00
2023-04-17T20:57:05.935Z,16.10
2023-04-17T21:09:06.400Z,17.30
2023-04-17T21:21:06.847Z,16.10
2023-04-17T21:33:07.267Z,14.50
2023-04-17T21:45:07.745Z,16.20
2023-04-17T21:57:08.191Z,14.60
2023-04-17T22:09:08.696Z,17.80
2023-04-17T22:21:09.082Z,16.50
2023-04-17T22:33:09.520Z,18.50
2023-04-17T22:45:10.020Z,22.10
2023-04-17T22:57:10.493Z,23.80
2023-04-17T23:09:10.907Z,26.00
2023-04-17T23:21:11.357Z,27.20
2023-04-17T23:33:11.789Z,24.40
2023-04-17T23:45:12.302Z,23.10
2023-04-17T23:57:12.703Z,24.10
